Time;durP1;ratioP1;P1;durP2;ratioP2;P2;SDS_P1;SDS_P2;PMS_P1;PMS_P2;Temp;Humidity;BMP_temperature;BMP_pressure;BME280_temperature;BME280_humidity;BME280_pressure;Samples;Min_cycle;Max_cycle;Signal;HPM_P1;HPM_P2
2023/03/11 00:00:28;;;;;;;2.20;2.07;;;3.70;99.90;;;;;;5066325;28;20495;-80
2023/03/11 00:02:56;;;;;;;3.00;2.70;;;3.60;99.90;;;;;;5059284;28;20482;-79
2023/03/11 00:05:28;;;;;;;2.60;2.33;;;3.60;99.90;;;;;;5062932;28;20463;-80
2023/03/11 00:07:54;;;;;;;3.67;2.60;;;3.70;99.90;;;;;;5060316;28;20444;-79
2023/03/11 00:10:24;;;;;;;2.90;2.57;;;3.60;99.90;;;;;;5062171;28;20909;-79
2023/03/11 00:12:49;;;;;;;3.10;2.20;;;3.40;99.90;;;;;;5063062;28;20201;-80
2023/03/11 00:15:15;;;;;;;2.93;2.63;;;3.70;99.90;;;;;;5069905;28;20477;-80
2023/03/11 00:17:41;;;;;;;3.80;2.80;;;3.60;99.90;;;;;;5062991;28;20201;-79
2023/03/11 00:20:14;;;;;;;3.53;2.90;;;3.30;99.90;;;;;;5061737;28;20474;-79
2023/03/11 00:22:39;;;;;;;5.80;2.90;;;3.50;99.90;;;;;;5070730;28;20182;-80
2023/03/11 00:25:05;;;;;;;2.83;2.60;;;3.50;99.90;;;;;;5069443;28;20448;-79
2023/03/11 00:27:31;;;;;;;3.30;2.87;;;3.60;99.90;;;;;;5072137;28;20231;-80
2023/03/11 00:29:56;;;;;;;4.90;3.47;;;3.60;99.90;;;;;;5061675;28;20489;-79
2023/03/11 00:32:22;;;;;;;5.93;3.53;;;3.50;99.90;;;;;;5071726;28;20181;-80
2023/03/11 00:34:48;;;;;;;5.90;3.63;;;3.60;99.90;;;;;;5063720;28;20181;-79
2023/03/11 00:37:13;;;;;;;4.10;2.83;;;3.60;99.90;;;;;;5066215;28;20220;-79
2023/03/11 00:39:39;;;;;;;3.77;2.70;;;3.40;99.90;;;;;;5062024;28;20189;-79
2023/03/11 00:42:06;;;;;;;3.90;2.63;;;3.60;99.90;;;;;;5073133;28;20173;-78
2023/03/11 00:44:32;;;;;;;2.70;2.50;;;3.60;99.90;;;;;;5065760;28;20181;-79
2023/03/11 00:46:58;;;;;;;3.93;2.73;;;3.50;99.90;;;;;;5071577;28;20894;-79
2023/03/11 00:49:23;;;;;;;5.10;3.23;;;3.50;99.90;;;;;;5069156;28;20588;-79
2023/03/11 00:51:49;;;;;;;6.60;3.33;;;3.50;99.90;;;;;;5074051;28;20180;-79
2023/03/11 00:54:14;;;;;;;3.67;3.30;;;3.50;99.90;;;;;;5072742;28;20546;-79
2023/03/11 00:56:40;;;;;;;4.83;3.70;;;3.50;99.90;;;;;;5072487;28;20219;-80
2023/03/11 00:59:06;;;;;;;4.13;3.40;;;3.60;99.90;;;;;;5073037;28;20201;-79
2023/03/11 01:01:31;;;;;;;4.60;3.13;;;3.50;99.90;;;;;;5067369;28;20243;-79
2023/03/11 01:03:57;;;;;;;4.33;3.33;;;3.70;99.90;;;;;;5063207;28;20612;-79
2023/03/11 01:06:23;;;;;;;3.37;2.97;;;3.50;99.90;;;;;;5062119;28;20190;-79
2023/03/11 01:08:48;;;;;;;5.97;3.47;;;3.60;99.90;;;;;;5073477;28;20210;-79
2023/03/11 01:11:14;;;;;;;5.13;2.73;;;3.60;99.90;;;;;;5074761;28;20189;-79
2023/03/11 01:13:40;;;;;;;4.10;2.93;;;3.40;99.90;;;;;;5069125;28;20233;-79
2023/03/11 01:16:07;;;;;;;3.40;3.00;;;3.50;99.90;;;;;;5066901;28;20557;-79
2023/03/11 01:18:34;;;;;;;2.70;2.50;;;3.60;99.90;;;;;;5058482;28;20199;-79
2023/03/11 01:20:59;;;;;;;2.83;2.53;;;3.50;99.90;;;;;;5075780;28;20416;-79
2023/03/11 01:23:25;;;;;;;2.70;2.40;;;3.60;99.90;;;;;;5067372;28;20432;-79
2023/03/11 01:25:51;;;;;;;2.50;2.20;;;3.60;99.90;;;;;;5061387;28;20506;-79
2023/03/11 01:28:17;;;;;;;2.30;2.03;;;3.60;99.90;;;;;;5072618;28;20205;-79
2023/03/11 01:30:43;;;;;;;2.47;2.27;;;3.50;99.90;;;;;;5064614;28;20255;-79
2023/03/11 01:33:15;;;;;;;2.70;2.23;;;3.50;99.90;;;;;;5070661;28;20213;-79
2023/03/11 01:35:42;;;;;;;2.73;2.13;;;3.50;99.90;;;;;;5059565;28;20928;-79
2023/03/11 01:38:08;;;;;;;3.20;2.20;;;3.50;99.90;;;;;;5071071;28;20451;-79
2023/03/11 01:40:37;;;;;;;2.03;1.90;;;3.60;99.90;;;;;;5066236;28;20463;-79
2023/03/11 01:43:05;;;;;;;5.23;2.40;;;3.70;99.90;;;;;;5072487;28;20454;-80
2023/03/11 01:46:01;;;;;;;3.90;2.23;;;3.30;99.90;;;;;;5063456;28;20474;-79
2023/03/11 01:48:27;;;;;;;3.97;2.13;;;3.40;99.90;;;;;;5069733;28;20443;-79
2023/03/11 01:50:53;;;;;;;2.37;1.60;;;3.40;99.90;;;;;;5061160;28;20515;-79
2023/03/11 01:53:20;;;;;;;2.60;2.20;;;3.50;99.90;;;;;;5077615;28;20455;-79
2023/03/11 01:55:47;;;;;;;2.43;1.90;;;3.40;99.90;;;;;;5063353;28;20516;-79
2023/03/11 01:58:36;;;;;;;2.87;1.97;;;3.50;99.90;;;;;;5068494;28;20441;-79
2023/03/11 02:01:03;;;;;;;3.60;1.80;;;3.40;99.90;;;;;;5063144;28;20475;-80
2023/03/11 02:03:32;;;;;;;3.00;1.73;;;3.40;99.90;;;;;;5064876;28;20428;-80
2023/03/11 02:06:01;;;;;;;2.77;2.47;;;3.30;99.90;;;;;;5051095;28;20634;-80
2023/03/11 02:08:28;;;;;;;5.87;2.40;;;3.50;99.90;;;;;;5071242;28;20471;-79
2023/03/11 02:10:55;;;;;;;4.03;2.30;;;3.50;99.90;;;;;;5059448;28;20428;-78
2023/03/11 02:13:22;;;;;;;3.17;2.73;;;3.50;99.90;;;;;;5063684;28;20470;-80
2023/03/11 02:15:47;;;;;;;3.67;2.73;;;3.50;99.90;;;;;;5064150;28;20424;-80
2023/03/11 02:18:17;;;;;;;4.90;3.03;;;3.40;99.90;;;;;;5066269;28;20445;-79
2023/03/11 02:20:47;;;;;;;7.27;2.77;;;3.50;99.90;;;;;;5068827;28;20186;-79
2023/03/11 02:23:15;;;;;;;4.40;2.63;;;3.40;99.90;;;;;;5069562;28;20419;-79
2023/03/11 02:26:06;;;;;;;4.20;2.83;;;3.30;99.90;;;;;;5058828;28;20432;-79
2023/03/11 02:28:33;;;;;;;4.33;2.83;;;3.40;99.90;;;;;;5065040;28;20448;-80
2023/03/11 02:30:59;;;;;;;3.03;2.43;;;3.40;99.90;;;;;;5059410;28;20447;-79
2023/03/11 02:33:29;;;;;;;6.10;2.63;;;3.50;99.90;;;;;;5059966;28;20472;-79
2023/03/11 02:35:56;;;;;;;3.47;3.03;;;3.40;99.90;;;;;;5063408;28;20432;-80
2023/03/11 02:38:22;;;;;;;3.30;2.53;;;3.40;99.90;;;;;;5058780;28;20464;-79
2023/03/11 02:40:53;;;;;;;4.47;3.00;;;3.40;99.90;;;;;;5069084;28;20443;-80
2023/03/11 02:43:42;;;;;;;2.77;2.23;;;3.30;99.90;;;;;;5066480;28;20414;-79
2023/03/11 02:46:10;;;;;;;5.90;2.60;;;3.20;99.90;;;;;;5057341;28;20481;-79
2023/03/11 02:48:37;;;;;;;3.40;3.10;;;3.40;99.90;;;;;;5061171;28;20499;-79
2023/03/11 02:51:03;;;;;;;3.47;2.50;;;3.20;99.90;;;;;;5060906;28;20440;-79
2023/03/11 02:53:33;;;;;;;6.20;2.70;;;3.20;99.90;;;;;;5064204;28;20467;-79
2023/03/11 02:55:59;;;;;;;4.10;2.47;;;3.10;99.90;;;;;;5062267;28;20428;-80
2023/03/11 02:58:24;;;;;;;2.10;1.90;;;3.20;99.90;;;;;;5059359;28;20443;-80
2023/03/11 03:00:50;;;;;;;3.73;2.00;;;3.10;99.90;;;;;;5067450;28;20198;-79
2023/03/11 03:03:16;;;;;;;4.80;2.37;;;3.10;99.90;;;;;;5048682;28;20216;-79
2023/03/11 03:05:41;;;;;;;3.53;1.97;;;3.20;99.90;;;;;;5065698;28;20214;-80
2023/03/11 03:08:07;;;;;;;4.60;2.53;;;3.20;99.90;;;;;;5059288;28;20307;-80
2023/03/11 03:10:33;;;;;;;7.47;2.30;;;3.20;99.90;;;;;;5066039;28;20217;-78
2023/03/11 03:12:58;;;;;;;4.17;2.27;;;3.10;99.90;;;;;;5064947;28;20201;-79
2023/03/11 03:15:24;;;;;;;4.33;2.43;;;3.00;99.90;;;;;;5057149;28;20193;-79
2023/03/11 03:17:50;;;;;;;4.53;2.40;;;2.80;99.90;;;;;;5061230;28;20564;-79
2023/03/11 03:20:17;;;;;;;3.53;2.13;;;3.10;99.90;;;;;;5052265;28;20428;-79
2023/03/11 03:22:43;;;;;;;5.00;2.60;;;3.00;99.90;;;;;;5056216;28;20420;-80
2023/03/11 03:25:09;;;;;;;4.00;2.47;;;2.80;99.90;;;;;;5065964;28;20469;-79
2023/03/11 03:27:35;;;;;;;3.97;3.00;;;2.90;99.90;;;;;;5059967;28;20538;-79
2023/03/11 03:30:02;;;;;;;3.40;1.87;;;3.00;99.90;;;;;;5064742;28;20770;-79
2023/03/11 03:32:27;;;;;;;4.10;2.20;;;2.90;99.90;;;;;;5064719;28;20435;-78
2023/03/11 03:34:57;;;;;;;4.83;2.30;;;3.00;99.90;;;;;;5063382;28;20420;-79
2023/03/11 03:37:25;;;;;;;6.93;2.40;;;3.10;99.90;;;;;;5068340;28;20699;-79
2023/03/11 03:39:51;;;;;;;9.60;3.27;;;2.80;99.90;;;;;;5065509;28;20420;-78
2023/03/11 03:42:16;;;;;;;6.30;2.17;;;3.00;99.90;;;;;;5063240;28;20416;-80
2023/03/11 03:44:42;;;;;;;6.30;2.50;;;2.90;99.90;;;;;;5067765;28;20254;-80
2023/03/11 03:47:08;;;;;;;5.00;3.10;;;3.20;99.90;;;;;;5058362;28;20198;-80
2023/03/11 03:49:33;;;;;;;3.63;2.20;;;2.90;99.90;;;;;;5058455;28;20549;-79
2023/03/11 03:51:59;;;;;;;5.30;2.47;;;3.00;99.90;;;;;;5069748;28;20188;-79
2023/03/11 03:54:25;;;;;;;4.77;2.20;;;3.20;99.90;;;;;;5066387;28;20263;-79
2023/03/11 03:56:50;;;;;;;6.13;2.67;;;3.20;99.90;;;;;;5056998;28;20268;-79
2023/03/11 03:59:16;;;;;;;6.70;3.30;;;3.20;99.90;;;;;;5061094;28;20198;-78
2023/03/11 04:01:42;;;;;;;3.20;2.67;;;3.00;99.90;;;;;;5065233;28;20188;-79
2023/03/11 04:04:07;;;;;;;4.40;2.30;;;3.20;99.90;;;;;;5050939;28;20185;-79
2023/03/11 04:06:33;;;;;;;4.30;2.27;;;3.10;99.90;;;;;;5063878;28;20216;-79
2023/03/11 04:08:59;;;;;;;4.10;2.13;;;2.90;99.90;;;;;;5069596;28;20208;-79
2023/03/11 04:11:24;;;;;;;3.03;1.80;;;2.80;99.90;;;;;;5069300;28;20443;-79
2023/03/11 04:13:50;;;;;;;6.43;2.27;;;2.90;99.90;;;;;;5061136;28;20298;-79
2023/03/11 04:16:19;;;;;;;6.77;2.07;;;3.20;99.90;;;;;;5062090;28;20182;-79
2023/03/11 04:18:45;;;;;;;4.30;1.70;;;3.10;99.90;;;;;;5063815;28;20228;-79
2023/03/11 04:21:11;;;;;;;11.03;2.47;;;2.90;99.90;;;;;;5056303;28;20478;-79
2023/03/11 04:23:36;;;;;;;3.80;2.47;;;3.10;99.90;;;;;;5061749;28;20461;-79
2023/03/11 04:26:03;;;;;;;3.80;2.27;;;3.10;99.90;;;;;;5068925;28;20181;-79
2023/03/11 04:28:28;;;;;;;4.10;2.10;;;3.10;99.90;;;;;;5062831;28;20202;-79
2023/03/11 04:30:54;;;;;;;3.70;2.30;;;3.10;99.90;;;;;;5059146;28;20847;-78
2023/03/11 04:33:20;;;;;;;4.63;1.80;;;3.10;99.90;;;;;;5066218;28;20213;-80
2023/03/11 04:35:46;;;;;;;4.80;2.50;;;3.10;99.90;;;;;;5070810;28;20196;-79
2023/03/11 04:38:11;;;;;;;4.40;2.33;;;2.90;99.90;;;;;;5060058;28;20243;-79
2023/03/11 04:40:38;;;;;;;7.67;2.57;;;2.80;99.90;;;;;;5067049;28;20807;-79
2023/03/11 04:43:03;;;;;;;4.50;2.70;;;2.90;99.90;;;;;;5070829;28;21047;-79
2023/03/11 04:45:30;;;;;;;4.77;2.20;;;3.00;99.90;;;;;;5049230;28;20451;-79
2023/03/11 04:47:55;;;;;;;6.03;2.67;;;2.90;99.90;;;;;;5051460;28;20194;-80
2023/03/11 04:50:21;;;;;;;2.70;2.03;;;2.90;99.90;;;;;;5046252;28;20432;-78
2023/03/11 04:52:47;;;;;;;3.77;2.27;;;3.00;99.90;;;;;;5025234;28;20201;-80
2023/03/11 04:55:13;;;;;;;4.30;2.23;;;3.20;99.90;;;;;;5032216;28;20601;-79
2023/03/11 04:57:39;;;;;;;2.93;2.10;;;3.10;99.90;;;;;;5052095;28;20284;-79
2023/03/11 05:00:10;;;;;;;4.23;2.13;;;3.00;99.90;;;;;;5024963;28;21100;-77
2023/03/11 05:02:36;;;;;;;5.63;2.90;;;2.90;99.90;;;;;;5047683;28;20428;-78
2023/03/11 05:05:02;;;;;;;3.10;1.93;;;3.10;99.90;;;;;;5042190;28;20470;-80
2023/03/11 05:07:28;;;;;;;4.33;2.57;;;2.90;99.90;;;;;;5048557;28;20582;-79
2023/03/11 05:09:54;;;;;;;3.40;2.33;;;2.80;99.90;;;;;;5067598;28;20495;-78
2023/03/11 05:12:19;;;;;;;4.00;2.07;;;2.90;99.90;;;;;;5028004;28;20190;-77
2023/03/11 05:14:45;;;;;;;7.00;2.23;;;2.90;99.90;;;;;;5045250;28;20213;-79
2023/03/11 05:17:12;;;;;;;2.83;1.97;;;3.00;99.90;;;;;;5025371;28;20182;-80
2023/03/11 05:19:38;;;;;;;3.90;2.60;;;3.10;99.90;;;;;;5048507;28;20181;-77
2023/03/11 05:22:04;;;;;;;8.50;2.87;;;3.10;99.90;;;;;;5032307;28;20769;-80
2023/03/11 05:24:30;;;;;;;8.70;2.37;;;3.10;99.90;;;;;;5050041;28;20971;-77
2023/03/11 05:26:56;;;;;;;5.07;2.73;;;2.90;99.90;;;;;;5049349;28;20424;-78
2023/03/11 05:29:23;;;;;;;5.00;2.83;;;2.90;99.90;;;;;;5051302;28;20811;-80
2023/03/11 05:31:49;;;;;;;7.50;2.40;;;3.10;99.90;;;;;;5033209;28;20918;-81
2023/03/11 05:34:15;;;;;;;3.90;2.20;;;2.90;99.90;;;;;;5034620;28;20506;-81
2023/03/11 05:36:41;;;;;;;8.00;2.33;;;2.90;99.90;;;;;;5058881;28;20697;-79
2023/03/11 05:39:07;;;;;;;4.50;2.10;;;3.10;99.90;;;;;;5071781;28;20869;-79
2023/03/11 05:41:33;;;;;;;3.40;2.40;;;2.80;99.90;;;;;;5073147;28;20830;-79
2023/03/11 05:43:59;;;;;;;5.53;2.13;;;3.00;99.90;;;;;;5071940;28;20420;-80
2023/03/11 05:46:25;;;;;;;3.23;2.17;;;2.80;99.90;;;;;;5072806;28;20213;-79
2023/03/11 05:48:50;;;;;;;3.40;2.10;;;2.80;99.90;;;;;;5071598;28;20696;-79
2023/03/11 05:51:16;;;;;;;5.10;2.17;;;2.90;99.90;;;;;;5072636;28;20468;-78
2023/03/11 05:53:47;;;;;;;6.43;2.47;;;2.90;99.90;;;;;;5054725;28;20243;-78
2023/03/11 05:56:22;;;;;;;3.00;1.80;;;2.80;99.90;;;;;;5071883;28;20213;-78
2023/03/11 05:58:48;;;;;;;5.43;1.77;;;2.80;99.90;;;;;;5071117;28;20431;-80
2023/03/11 06:01:16;;;;;;;4.50;2.10;;;2.80;99.90;;;;;;5070492;28;20474;-78
2023/03/11 06:03:42;;;;;;;4.60;2.30;;;2.60;99.90;;;;;;5043995;28;20436;-78
2023/03/11 06:06:11;;;;;;;4.70;2.13;;;2.80;99.90;;;;;;5034514;28;20518;-81
2023/03/11 06:08:37;;;;;;;5.80;2.63;;;2.80;99.90;;;;;;5052242;28;20432;-78
2023/03/11 06:11:04;;;;;;;5.23;2.00;;;2.60;99.90;;;;;;5034579;28;20408;-83
2023/03/11 06:13:30;;;;;;;6.90;2.13;;;2.80;99.90;;;;;;5052188;28;20494;-77
2023/03/11 06:15:56;;;;;;;5.83;2.73;;;2.80;99.90;;;;;;5051077;28;20444;-77
2023/03/11 06:18:22;;;;;;;8.13;1.73;;;2.70;99.90;;;;;;5034112;28;20551;-79
2023/03/11 06:20:47;;;;;;;6.63;2.57;;;2.80;99.90;;;;;;5052010;28;20184;-79
2023/03/11 06:23:13;;;;;;;7.90;2.13;;;2.80;99.90;;;;;;5052350;28;20170;-79
2023/03/11 06:25:39;;;;;;;2.73;2.10;;;2.90;99.90;;;;;;5047492;28;20696;-77
2023/03/11 06:28:05;;;;;;;4.07;2.37;;;2.70;99.90;;;;;;5029807;28;20212;-79
2023/03/11 06:30:30;;;;;;;4.20;2.07;;;2.70;99.90;;;;;;5031853;28;20227;-79
2023/03/11 06:32:56;;;;;;;3.57;2.47;;;2.90;99.90;;;;;;5050399;28;20209;-82
2023/03/11 06:35:22;;;;;;;4.10;2.07;;;2.90;99.90;;;;;;5033282;28;20631;-80
2023/03/11 06:37:47;;;;;;;4.93;2.47;;;3.00;99.90;;;;;;5072912;28;20681;-77
2023/03/11 06:40:13;;;;;;;7.07;2.30;;;2.80;99.90;;;;;;5051948;28;20181;-81
2023/03/11 06:42:39;;;;;;;5.50;2.63;;;2.90;99.90;;;;;;5051379;28;20213;-76
2023/03/11 06:45:05;;;;;;;4.03;2.40;;;2.90;99.90;;;;;;5053008;28;20267;-78
2023/03/11 06:47:31;;;;;;;4.87;2.07;;;2.90;99.90;;;;;;5054686;28;20200;-79
2023/03/11 06:49:56;;;;;;;6.70;2.23;;;2.90;99.90;;;;;;5035470;28;20424;-77
2023/03/11 06:52:22;;;;;;;3.40;1.93;;;2.80;99.90;;;;;;5050767;28;20204;-80
2023/03/11 06:54:48;;;;;;;4.83;2.03;;;2.80;99.90;;;;;;5050487;28;20241;-81
2023/03/11 06:57:14;;;;;;;5.60;2.00;;;2.90;99.90;;;;;;5051731;28;20567;-81
2023/03/11 06:59:40;;;;;;;5.60;2.70;;;3.00;99.90;;;;;;5050408;28;20499;-79
2023/03/11 07:02:06;;;;;;;6.87;2.87;;;2.90;99.90;;;;;;5051718;28;20856;-82
2023/03/11 07:04:32;;;;;;;15.03;3.33;;;2.90;99.90;;;;;;5050140;28;20552;-82
2023/03/11 07:06:58;;;;;;;3.70;2.70;;;2.80;99.90;;;;;;5050410;28;20416;-78
2023/03/11 07:09:24;;;;;;;4.77;2.33;;;2.80;99.90;;;;;;5033427;28;20463;-79
2023/03/11 07:11:53;;;;;;;4.83;2.50;;;2.90;99.90;;;;;;5051472;28;20487;-79
2023/03/11 07:14:19;;;;;;;5.03;2.37;;;2.90;99.90;;;;;;5051004;28;21004;-80
2023/03/11 07:16:45;;;;;;;6.30;2.63;;;3.00;99.90;;;;;;5049926;28;20519;-79
2023/03/11 07:19:11;;;;;;;4.70;2.40;;;3.20;99.90;;;;;;5051014;28;20197;-80
2023/03/11 07:21:38;;;;;;;4.93;2.23;;;3.10;99.90;;;;;;5051009;28;20416;-80
2023/03/11 07:24:07;;;;;;;3.67;2.03;;;3.10;99.90;;;;;;5033611;28;20438;-79
2023/03/11 07:26:34;;;;;;;6.73;2.73;;;3.30;99.90;;;;;;5051209;28;20921;-82
2023/03/11 07:29:00;;;;;;;4.83;2.33;;;3.20;99.90;;;;;;5050149;28;20828;-83
2023/03/11 07:31:29;;;;;;;5.43;2.67;;;3.30;99.90;;;;;;5050798;28;20416;-82
2023/03/11 07:33:57;;;;;;;8.13;3.07;;;3.40;99.90;;;;;;5034619;28;20526;-83
2023/03/11 07:36:24;;;;;;;4.17;2.10;;;3.60;99.90;;;;;;5050657;28;20546;-83
2023/03/11 07:39:04;;;;;;;4.83;2.77;;;3.70;99.90;;;;;;5049566;28;20945;-82
2023/03/11 07:41:32;;;;;;;6.50;2.80;;;3.80;99.90;;;;;;5051616;28;20897;-83
2023/03/11 07:44:01;;;;;;;8.40;2.70;;;3.90;99.90;;;;;;5051891;28;20483;-82
2023/03/11 07:46:28;;;;;;;4.43;2.10;;;4.00;99.90;;;;;;5047287;28;20495;-79
2023/03/11 07:48:54;;;;;;;7.03;2.67;;;4.10;99.90;;;;;;5047925;28;20428;-82
2023/03/11 07:51:25;;;;;;;4.97;2.40;;;4.20;99.90;;;;;;5036037;28;20410;-81
2023/03/11 07:53:53;;;;;;;3.60;2.80;;;4.40;99.90;;;;;;5043236;28;20456;-79
2023/03/11 07:56:20;;;;;;;8.00;2.67;;;4.50;99.90;;;;;;5050330;28;20469;-80
2023/03/11 07:58:45;;;;;;;6.07;2.70;;;4.80;99.90;;;;;;5050883;28;20431;-82
2023/03/11 08:01:15;;;;;;;3.43;2.17;;;4.80;99.90;;;;;;5033241;28;20515;-81
2023/03/11 08:03:41;;;;;;;6.53;2.67;;;4.90;99.90;;;;;;5049349;28;20188;-82
2023/03/11 08:06:16;;;;;;;3.87;2.30;;;5.00;99.90;;;;;;5050310;28;20458;-80
2023/03/11 08:08:42;;;;;;;4.00;2.43;;;5.00;99.90;;;;;;5051275;28;20459;-79
2023/03/11 08:11:09;;;;;;;4.47;1.80;;;5.30;99.90;;;;;;5049988;28;20774;-78
2023/03/11 08:13:35;;;;;;;3.70;2.27;;;5.40;99.90;;;;;;5049552;28;20456;-82
2023/03/11 08:16:05;;;;;;;3.50;2.13;;;5.30;99.90;;;;;;5048541;28;20733;-81
2023/03/11 08:18:31;;;;;;;3.23;2.40;;;5.40;99.90;;;;;;5050222;28;20424;-81
2023/03/11 08:20:57;;;;;;;7.23;2.80;;;5.10;99.90;;;;;;5048188;28;20920;-81
2023/03/11 08:23:23;;;;;;;5.23;3.03;;;5.20;99.90;;;;;;5032303;28;20831;-78
2023/03/11 08:25:49;;;;;;;5.20;1.80;;;4.90;99.90;;;;;;5049367;28;20416;-82
2023/03/11 08:28:15;;;;;;;3.33;2.20;;;5.20;99.90;;;;;;5050256;28;20276;-81
2023/03/11 08:30:41;;;;;;;4.93;2.43;;;5.40;99.90;;;;;;5048616;28;20675;-79
2023/03/11 08:33:06;;;;;;;4.93;2.40;;;5.40;99.90;;;;;;5049718;28;20484;-79
2023/03/11 08:35:32;;;;;;;7.40;2.40;;;5.20;99.90;;;;;;5049214;28;20928;-79
2023/03/11 08:37:58;;;;;;;7.80;2.60;;;5.80;99.90;;;;;;5049923;28;20220;-78
2023/03/11 08:40:23;;;;;;;4.20;2.40;;;5.30;99.90;;;;;;5026220;28;20169;-82
2023/03/11 08:42:49;;;;;;;4.17;2.07;;;5.90;99.90;;;;;;5042728;28;20209;-78
2023/03/11 08:45:15;;;;;;;5.63;2.47;;;6.00;99.90;;;;;;5048150;28;20177;-77
2023/03/11 08:47:40;;;;;;;4.67;2.10;;;6.10;99.90;;;;;;5034856;28;20282;-81
2023/03/11 08:50:13;;;;;;;2.73;2.03;;;5.50;99.90;;;;;;5030799;28;20240;-79
2023/03/11 08:52:39;;;;;;;7.90;2.10;;;6.00;99.90;;;;;;5044213;28;20193;-77
2023/03/11 08:55:07;;;;;;;5.40;1.97;;;6.10;99.90;;;;;;5031358;28;20417;-80
2023/03/11 08:57:33;;;;;;;3.73;1.80;;;6.20;99.90;;;;;;5029678;28;20217;-79
2023/03/11 08:59:59;;;;;;;2.90;2.10;;;6.30;99.90;;;;;;5049755;28;20419;-81
2023/03/11 09:02:25;;;;;;;5.00;2.30;;;6.20;99.90;;;;;;5049158;28;20447;-81
2023/03/11 09:04:51;;;;;;;6.60;2.63;;;5.90;99.90;;;;;;5051840;28;20566;-81
2023/03/11 09:07:17;;;;;;;4.20;2.07;;;6.00;99.90;;;;;;5052708;28;20450;-79
2023/03/11 09:09:42;;;;;;;5.10;1.93;;;6.40;99.90;;;;;;5053572;28;20571;-81
2023/03/11 09:12:12;;;;;;;2.17;1.70;;;6.40;99.90;;;;;;5054008;28;20409;-77
2023/03/11 09:14:42;;;;;;;3.73;1.83;;;6.30;99.90;;;;;;5053766;28;20209;-81
2023/03/11 09:17:09;;;;;;;3.40;2.03;;;6.30;99.90;;;;;;5053565;28;20866;-80
2023/03/11 09:19:35;;;;;;;4.67;1.60;;;6.30;99.90;;;;;;5053695;28;21383;-79
2023/03/11 09:22:01;;;;;;;1.97;1.30;;;6.40;99.90;;;;;;5054094;28;20408;-80
2023/03/11 09:24:27;;;;;;;4.13;1.30;;;6.50;99.90;;;;;;5035859;28;20455;-82
2023/03/11 09:26:53;;;;;;;2.50;1.10;;;6.30;99.90;;;;;;5054480;28;20435;-79
2023/03/11 09:29:18;;;;;;;3.93;1.60;;;6.30;99.90;;;;;;5054842;28;20423;-79
2023/03/11 09:31:44;;;;;;;3.20;1.30;;;6.30;99.90;;;;;;5054971;28;20648;-81
2023/03/11 09:34:12;;;;;;;2.40;1.00;;;6.00;99.90;;;;;;5057394;28;20215;-81
2023/03/11 09:36:40;;;;;;;1.83;0.90;;;6.40;99.90;;;;;;5056927;28;20178;-82
2023/03/11 09:39:06;;;;;;;1.60;0.90;;;6.30;99.90;;;;;;5052990;28;20524;-82
2023/03/11 09:41:51;;;;;;;5.10;1.53;;;6.10;99.90;;;;;;5051969;28;20413;-79
2023/03/11 09:44:40;;;;;;;1.77;1.20;;;6.50;99.90;;;;;;5031637;28;20413;-80
2023/03/11 09:47:16;;;;;;;1.70;1.20;;;6.60;99.90;;;;;;5032525;28;20401;-80
2023/03/11 09:49:44;;;;;;;4.63;1.40;;;6.70;99.90;;;;;;5053439;28;20456;-82
2023/03/11 09:52:10;;;;;;;6.43;2.00;;;6.90;99.90;;;;;;5054244;28;20415;-80
2023/03/11 09:54:46;;;;;;;2.10;1.43;;;7.00;99.90;;;;;;5047652;28;20453;-81
2023/03/11 09:57:18;;;;;;;2.60;1.10;;;7.20;99.90;;;;;;5043951;28;20876;-81
2023/03/11 09:59:45;;;;;;;1.30;0.80;;;7.30;99.90;;;;;;5046130;28;20812;-77
2023/03/11 10:02:15;;;;;;;4.33;1.70;;;7.40;99.90;;;;;;5048318;28;20445;-83
2023/03/11 10:05:02;;;;;;;2.20;1.03;;;7.30;99.90;;;;;;5052034;28;20515;-82
2023/03/11 10:07:34;;;;;;;1.33;0.90;;;7.10;99.90;;;;;;5036680;28;21027;-77
2023/03/11 10:10:00;;;;;;;3.10;1.00;;;7.00;99.90;;;;;;5055257;28;20459;-78
2023/03/11 10:12:32;;;;;;;2.20;0.90;;;6.90;99.90;;;;;;5062855;28;20428;-77
2023/03/11 10:15:13;;;;;;;3.63;1.10;;;6.80;99.90;;;;;;5043336;28;20229;-81
2023/03/11 10:17:45;;;;;;;1.50;1.10;;;6.90;99.90;;;;;;5057458;28;20457;-81
2023/03/11 10:20:26;;;;;;;2.00;0.73;;;7.00;99.90;;;;;;5040055;28;20954;-78
2023/03/11 10:23:18;;;;;;;3.27;0.70;;;7.20;99.90;;;;;;5057604;28;20439;-80
2023/03/11 10:26:08;;;;;;;2.93;0.90;;;7.30;99.90;;;;;;5040701;28;20456;-78
2023/03/11 10:28:46;;;;;;;2.10;0.77;;;7.30;99.90;;;;;;5061072;28;20428;-82
2023/03/11 10:31:21;;;;;;;4.87;1.30;;;7.50;99.90;;;;;;5063265;28;20443;-79
2023/03/11 10:34:21;;;;;;;2.43;1.00;;;7.70;99.90;;;;;;5048653;28;20459;-82
2023/03/11 10:37:19;;;;;;;4.33;1.30;;;7.80;99.90;;;;;;5017578;28;20453;-78
2023/03/11 10:39:49;;;;;;;7.30;1.70;;;7.70;99.90;;;;;;5056891;28;20518;-81
2023/03/11 10:42:24;;;;;;;1.00;0.90;;;7.70;99.90;;;;;;5040095;28;20436;-79
2023/03/11 10:44:49;;;;;;;1.70;1.10;;;7.60;99.90;;;;;;5064486;28;20932;-78
2023/03/11 10:47:24;;;;;;;1.43;0.93;;;7.60;99.20;;;;;;5029882;28;20453;-77
2023/03/11 10:49:51;;;;;;;2.20;0.93;;;7.40;99.50;;;;;;5039440;28;20241;-79
2023/03/11 10:52:17;;;;;;;2.00;1.17;;;7.50;99.30;;;;;;5043774;28;20433;-82
2023/03/11 10:54:46;;;;;;;2.73;0.80;;;7.50;99.90;;;;;;5061595;28;21563;-79
2023/03/11 10:57:25;;;;;;;2.70;1.00;;;7.60;99.90;;;;;;5029724;28;20451;-81
2023/03/11 10:59:53;;;;;;;1.33;0.80;;;7.70;99.90;;;;;;5051174;28;20436;-83
2023/03/11 11:02:29;;;;;;;3.30;1.20;;;7.60;99.90;;;;;;5058753;28;20433;-81
2023/03/11 11:05:31;;;;;;;1.33;0.87;;;7.60;99.30;;;;;;5053561;28;20470;-79
2023/03/11 11:08:18;;;;;;;2.43;1.20;;;7.70;99.90;;;;;;5055647;28;20447;-81
2023/03/11 11:10:58;;;;;;;1.53;0.90;;;7.70;99.20;;;;;;5052819;28;20455;-81
2023/03/11 11:13:26;;;;;;;2.30;1.00;;;7.70;99.50;;;;;;5071712;28;20459;-81
2023/03/11 11:15:55;;;;;;;4.73;1.10;;;7.60;98.90;;;;;;5067004;28;20530;-81
2023/03/11 11:18:26;;;;;;;5.13;1.70;;;7.60;98.80;;;;;;5063259;28;20439;-81
2023/03/11 11:21:13;;;;;;;2.03;1.63;;;7.60;98.30;;;;;;5062823;28;20440;-81
2023/03/11 11:23:59;;;;;;;2.37;0.97;;;7.50;98.30;;;;;;5052972;28;20509;-80
2023/03/11 11:26:25;;;;;;;4.27;1.37;;;7.50;99.90;;;;;;5054737;28;20852;-81
2023/03/11 11:29:06;;;;;;;2.83;1.23;;;7.50;99.90;;;;;;5064376;28;20439;-81
2023/03/11 11:31:32;;;;;;;1.37;1.00;;;7.50;99.70;;;;;;5047978;28;20448;-81
2023/03/11 11:33:58;;;;;;;2.23;1.10;;;7.60;99.90;;;;;;5060401;28;20547;-79
2023/03/11 11:36:35;;;;;;;3.33;1.20;;;7.60;98.40;;;;;;5066505;28;20451;-80
2023/03/11 11:39:04;;;;;;;2.77;1.00;;;7.60;99.50;;;;;;5038947;28;20691;-81
2023/03/11 11:41:34;;;;;;;3.27;1.00;;;7.60;99.90;;;;;;5073568;28;20458;-81
2023/03/11 11:44:04;;;;;;;2.83;1.10;;;7.60;98.90;;;;;;5058967;28;20470;-81
2023/03/11 11:46:40;;;;;;;1.90;1.10;;;7.70;98.40;;;;;;5060427;28;20463;-80
2023/03/11 11:49:19;;;;;;;2.83;1.17;;;7.60;98.30;;;;;;5058420;28;20454;-79
2023/03/11 11:52:13;;;;;;;2.70;1.33;;;7.70;99.60;;;;;;5060602;28;20466;-80
2023/03/11 11:55:01;;;;;;;1.67;1.10;;;7.80;98.70;;;;;;5053382;28;20468;-81
2023/03/11 11:57:28;;;;;;;2.37;1.03;;;7.80;97.60;;;;;;5057874;28;20427;-79
2023/03/11 11:59:54;;;;;;;2.90;1.03;;;7.80;98.10;;;;;;5063930;28;20561;-78
2023/03/11 12:02:44;;;;;;;4.77;1.70;;;7.90;97.80;;;;;;5062581;28;20430;-78
2023/03/11 12:05:18;;;;;;;1.97;1.23;;;7.90;96.50;;;;;;5049476;28;21052;-76
2023/03/11 12:07:53;;;;;;;1.73;1.10;;;8.00;98.10;;;;;;5063024;28;20543;-77
2023/03/11 12:10:34;;;;;;;1.67;1.23;;;8.00;96.20;;;;;;5045828;28;20413;-76
2023/03/11 12:13:24;;;;;;;4.03;1.67;;;8.00;97.40;;;;;;5044458;28;20464;-77
2023/03/11 12:15:56;;;;;;;2.43;1.80;;;8.10;97.40;;;;;;5047829;28;20412;-76
2023/03/11 12:18:36;;;;;;;1.63;1.47;;;8.20;98.20;;;;;;5039738;28;20464;-77
2023/03/11 12:21:26;;;;;;;2.60;1.77;;;8.30;99.00;;;;;;5039912;28;20434;-77
2023/03/11 12:24:30;;;;;;;2.23;1.67;;;8.30;98.80;;;;;;5047334;28;20500;-77
2023/03/11 12:27:03;;;;;;;2.63;2.00;;;8.40;97.70;;;;;;5046625;28;20823;-77
2023/03/11 12:29:41;;;;;;;4.00;1.93;;;8.40;98.20;;;;;;5048623;28;20470;-77
2023/03/11 12:32:18;;;;;;;3.63;1.43;;;8.40;98.50;;;;;;5048872;28;20430;-77
2023/03/11 12:34:44;;;;;;;4.17;1.90;;;8.30;98.00;;;;;;5048482;28;20456;-77
2023/03/11 12:37:15;;;;;;;1.90;1.70;;;8.20;97.60;;;;;;5048259;28;20420;-77
2023/03/11 12:39:41;;;;;;;2.13;1.87;;;8.20;97.30;;;;;;5047370;28;20204;-76
2023/03/11 12:42:10;;;;;;;2.00;1.60;;;8.10;97.60;;;;;;5049487;28;20435;-77
2023/03/11 12:44:37;;;;;;;2.10;1.60;;;8.00;97.00;;;;;;5049150;28;20865;-77
2023/03/11 12:47:24;;;;;;;3.70;1.80;;;8.00;96.60;;;;;;5048942;28;20976;-76
2023/03/11 12:49:53;;;;;;;2.40;1.50;;;7.80;97.20;;;;;;5049035;28;20419;-77
2023/03/11 12:52:23;;;;;;;3.50;2.00;;;7.80;96.40;;;;;;5048973;28;20423;-77
2023/03/11 12:55:17;;;;;;;2.77;1.80;;;7.70;96.60;;;;;;5048820;28;20463;-77
2023/03/11 12:57:46;;;;;;;2.03;1.70;;;7.60;96.00;;;;;;5047125;28;20444;-76
2023/03/11 13:00:21;;;;;;;1.73;1.53;;;7.60;96.60;;;;;;5048710;28;20465;-77
2023/03/11 13:03:09;;;;;;;2.27;1.60;;;7.50;94.90;;;;;;5047818;28;20416;-77
2023/03/11 13:06:14;;;;;;;2.17;1.30;;;7.50;95.60;;;;;;5049110;28;20538;-77
2023/03/11 13:08:45;;;;;;;3.40;1.53;;;7.50;96.10;;;;;;5048686;28;20493;-77